createdAt,value
2023-02-12T00:00:52.919Z,33.00
2023-02-12T00:03:40.052Z,28.70
2023-02-12T00:06:26.099Z,29.53
2023-02-12T00:09:11.796Z,28.00
2023-02-12T00:11:57.506Z,30.57
2023-02-12T00:14:43.014Z,28.17
2023-02-12T00:17:28.730Z,30.67
2023-02-12T00:20:14.181Z,29.43
2023-02-12T00:22:59.350Z,29.40
2023-02-12T00:25:44.904Z,27.30
2023-02-12T00:28:30.321Z,28.83
2023-02-12T00:31:19.300Z,27.50
2023-02-12T00:34:04.913Z,33.53
2023-02-12T00:36:50.478Z,28.33
2023-02-12T00:39:38.078Z,33.37
2023-02-12T00:42:23.769Z,36.27
2023-02-12T00:45:09.713Z,29.17
2023-02-12T00:47:55.271Z,27.20
2023-02-12T00:50:43.722Z,31.43
2023-02-12T00:53:29.853Z,33.23
2023-02-12T00:56:15.579Z,33.17
2023-02-12T00:59:00.894Z,31.40
2023-02-12T01:01:46.184Z,28.67
2023-02-12T01:04:31.836Z,31.73
2023-02-12T01:07:17.686Z,29.83
2023-02-12T01:10:03.032Z,27.47
2023-02-12T01:12:49.281Z,30.83
2023-02-12T01:15:34.921Z,27.37
2023-02-12T01:18:20.467Z,32.23
2023-02-12T01:21:24.164Z,29.53
2023-02-12T01:24:10.008Z,29.23
2023-02-12T01:26:58.175Z,31.57
2023-02-12T01:29:44.713Z,33.13
2023-02-12T01:32:29.983Z,31.23
2023-02-12T01:35:15.546Z,30.30
2023-02-12T01:38:00.735Z,28.83
2023-02-12T01:40:46.387Z,29.13
2023-02-12T01:43:33.332Z,32.47
2023-02-12T01:46:18.804Z,31.67
2023-02-12T01:49:07.752Z,32.63
2023-02-12T01:52:01.046Z,30.70
2023-02-12T01:54:47.398Z,30.87
2023-02-12T01:57:35.469Z,32.07
2023-02-12T02:00:23.634Z,33.90
2023-02-12T02:03:09.506Z,29.90
2023-02-12T02:05:59.524Z,29.97
2023-02-12T02:08:45.328Z,32.50
2023-02-12T02:11:49.126Z,31.67
2023-02-12T02:14:34.868Z,31.10
2023-02-12T02:17:40.808Z,30.57
2023-02-12T02:21:10.766Z,30.50
2023-02-12T02:24:31.914Z,27.90
2023-02-12T02:27:30.107Z,31.37
2023-02-12T02:30:30.723Z,29.03
2023-02-12T02:33:30.812Z,31.47
2023-02-12T02:37:02.428Z,27.20
2023-02-12T02:40:02.961Z,28.23
2023-02-12T02:42:48.601Z,25.87
2023-02-12T02:45:41.683Z,29.67
2023-02-12T02:48:34.604Z,28.40
2023-02-12T02:51:37.306Z,30.50
2023-02-12T02:54:36.206Z,28.53
2023-02-12T02:57:29.765Z,29.30
2023-02-12T03:00:26.961Z,29.93
2023-02-12T03:03:25.846Z,28.53
2023-02-12T03:06:18.599Z,29.93
2023-02-12T03:09:13.275Z,27.70
2023-02-12T03:12:04.256Z,24.52
2023-02-12T03:15:10.281Z,26.20
2023-02-12T03:17:58.265Z,29.17
2023-02-12T03:20:53.729Z,29.73
2023-02-12T03:24:30.335Z,28.87
2023-02-12T03:27:38.758Z,30.00
2023-02-12T03:30:33.951Z,30.20
2023-02-12T03:33:37.991Z,29.47
2023-02-12T03:37:01.577Z,26.50
2023-02-12T03:39:49.756Z,25.53
2023-02-12T03:42:46.304Z,29.00
2023-02-12T03:45:34.853Z,27.50
2023-02-12T03:48:36.504Z,31.97
2023-02-12T03:51:38.659Z,25.30
2023-02-12T03:54:24.605Z,26.83
2023-02-12T03:57:20.147Z,27.07
2023-02-12T04:00:10.670Z,28.53
2023-02-12T04:02:56.857Z,26.63
2023-02-12T04:05:41.891Z,26.23
2023-02-12T04:08:28.428Z,30.47
2023-02-12T04:11:38.215Z,29.63
2023-02-12T04:14:38.813Z,27.73
2023-02-12T04:18:18.242Z,27.03
2023-02-12T04:21:11.197Z,26.57
2023-02-12T04:24:20.717Z,30.77
2023-02-12T04:27:19.107Z,28.27
2023-02-12T04:30:33.807Z,27.73
2023-02-12T04:33:23.075Z,29.52
2023-02-12T04:36:24.244Z,33.13
2023-02-12T04:39:15.242Z,27.83
2023-02-12T04:42:02.044Z,28.93
2023-02-12T04:44:48.012Z,27.50
2023-02-12T04:47:33.475Z,28.53
2023-02-12T04:50:20.213Z,27.73
2023-02-12T04:53:06.730Z,25.30
2023-02-12T04:55:52.355Z,24.33
2023-02-12T04:58:37.871Z,24.03
2023-02-12T05:01:23.501Z,26.90
2023-02-12T05:04:11.752Z,23.63
2023-02-12T05:06:57.317Z,25.47
2023-02-12T05:09:42.931Z,25.10
2023-02-12T05:12:28.429Z,29.40
2023-02-12T05:15:14.089Z,29.83
2023-02-12T05:17:59.969Z,29.47
2023-02-12T05:20:45.455Z,26.90
2023-02-12T05:23:33.788Z,27.87
2023-02-12T05:26:21.987Z,29.20
2023-02-12T05:29:07.372Z,28.77
2023-02-12T05:31:53.071Z,26.13
2023-02-12T05:34:38.859Z,27.07
2023-02-12T05:37:24.290Z,29.30
2023-02-12T05:40:10.363Z,28.97
2023-02-12T05:42:56.141Z,23.87
2023-02-12T05:45:44.258Z,25.30
2023-02-12T05:48:30.100Z,27.73
2023-02-12T05:51:21.725Z,30.97
2023-02-12T05:54:08.377Z,26.93
2023-02-12T05:56:53.752Z,28.10
2023-02-12T05:59:39.854Z,25.80
2023-02-12T06:02:25.686Z,28.43
2023-02-12T06:05:10.991Z,29.00
2023-02-12T06:07:56.253Z,28.40
2023-02-12T06:10:41.731Z,30.33
2023-02-12T06:13:27.340Z,25.63
2023-02-12T06:16:19.118Z,25.20
2023-02-12T06:19:06.324Z,27.60
2023-02-12T06:21:51.710Z,25.67
2023-02-12T06:24:37.407Z,27.67
2023-02-12T06:27:22.846Z,26.40
2023-02-12T06:30:08.964Z,26.40
2023-02-12T06:32:54.597Z,27.93
2023-02-12T06:35:39.952Z,28.67
2023-02-12T06:38:25.392Z,27.37
2023-02-12T06:41:11.318Z,24.10
2023-02-12T06:43:56.328Z,25.87
2023-02-12T06:46:42.369Z,28.63
2023-02-12T06:49:27.643Z,29.23
2023-02-12T06:52:14.285Z,26.77
2023-02-12T06:54:59.985Z,25.40
2023-02-12T06:57:45.579Z,28.90
2023-02-12T07:00:31.120Z,28.63
2023-02-12T07:03:16.524Z,26.17
2023-02-12T07:06:03.958Z,26.13
2023-02-12T07:08:49.445Z,23.63
2023-02-12T07:11:38.292Z,25.27
2023-02-12T07:14:24.013Z,26.47
2023-02-12T07:17:10.153Z,27.03
2023-02-12T07:19:55.620Z,28.77
2023-02-12T07:22:41.151Z,26.97
2023-02-12T07:25:26.645Z,28.30
2023-02-12T07:28:12.269Z,28.23
2023-02-12T07:30:57.744Z,25.07
2023-02-12T07:33:43.281Z,49.03
2023-02-12T07:36:31.508Z,37.80
2023-02-12T07:39:17.479Z,27.77
2023-02-12T07:42:03.204Z,29.23
2023-02-12T07:44:48.942Z,27.23
2023-02-12T07:47:35.810Z,27.73
2023-02-12T07:50:21.375Z,25.97
2023-02-12T07:53:07.128Z,25.67
2023-02-12T07:55:52.615Z,31.20
2023-02-12T07:58:39.483Z,30.80
2023-02-12T08:01:32.858Z,27.93
2023-02-12T08:04:23.215Z,25.93
2023-02-12T08:07:08.563Z,30.37
2023-02-12T08:09:54.014Z,31.43
2023-02-12T08:12:39.983Z,36.03
2023-02-12T08:15:25.381Z,31.37
2023-02-12T08:18:10.978Z,33.33
2023-02-12T08:21:02.670Z,29.97
2023-02-12T08:23:51.928Z,30.27
2023-02-12T08:26:39.234Z,28.33
2023-02-12T08:29:28.523Z,28.43
2023-02-12T08:32:14.434Z,34.73
2023-02-12T08:34:59.985Z,30.60
2023-02-12T08:37:45.589Z,28.87
2023-02-12T08:40:31.079Z,30.50
2023-02-12T08:43:16.678Z,30.73
2023-02-12T08:46:07.049Z,29.60
2023-02-12T08:48:58.492Z,29.33
2023-02-12T08:51:48.592Z,31.70
2023-02-12T08:54:34.011Z,32.10
2023-02-12T08:57:19.581Z,26.37
2023-02-12T09:00:05.586Z,31.23
2023-02-12T09:02:50.892Z,30.33
2023-02-12T09:05:40.623Z,31.93
2023-02-12T09:08:26.002Z,28.93
2023-02-12T09:11:20.579Z,30.30
2023-02-12T09:14:10.832Z,30.15
2023-02-12T09:16:57.522Z,29.87
2023-02-12T09:19:42.830Z,28.50
2023-02-12T09:22:28.184Z,29.83
2023-02-12T09:25:13.747Z,30.03
2023-02-12T09:27:59.317Z,30.13
2023-02-12T09:30:45.141Z,27.47
2023-02-12T09:33:30.580Z,24.73
2023-02-12T09:36:17.187Z,30.70
2023-02-12T09:39:04.034Z,26.70
2023-02-12T09:42:12.052Z,29.30
2023-02-12T09:45:18.454Z,26.30
2023-02-12T09:48:28.374Z,25.13
2023-02-12T09:51:14.504Z,28.47
2023-02-12T09:54:21.224Z,25.07
2023-02-12T09:57:26.134Z,28.93
2023-02-12T10:00:18.289Z,31.13
2023-02-12T10:03:11.625Z,28.40
2023-02-12T10:06:05.591Z,24.53
2023-02-12T10:09:06.085Z,27.23
2023-02-12T10:11:55.064Z,27.03
2023-02-12T10:15:09.245Z,24.43
2023-02-12T10:17:59.478Z,31.97
2023-02-12T10:20:47.939Z,25.77
2023-02-12T10:24:05.837Z,27.67
2023-02-12T10:26:57.587Z,26.53
2023-02-12T10:29:45.255Z,27.73
2023-02-12T10:32:35.670Z,25.93
2023-02-12T10:35:23.664Z,28.73
2023-02-12T10:38:21.482Z,24.83
2023-02-12T10:41:06.922Z,29.13
2023-02-12T10:43:53.215Z,26.97
2023-02-12T10:46:38.795Z,27.90
2023-02-12T10:49:24.787Z,31.33
2023-02-12T10:52:35.459Z,30.17
2023-02-12T10:55:33.152Z,29.37
2023-02-12T10:58:21.913Z,29.97
2023-02-12T11:01:26.726Z,29.87
2023-02-12T11:04:30.296Z,29.17
2023-02-12T11:07:16.018Z,29.80
2023-02-12T11:10:01.807Z,28.70
2023-02-12T11:12:49.285Z,25.87
2023-02-12T11:15:47.952Z,29.30
2023-02-12T11:18:36.749Z,27.43
2023-02-12T11:21:23.663Z,26.93
2023-02-12T11:24:29.970Z,27.37
2023-02-12T11:27:28.731Z,27.60
2023-02-12T11:30:20.831Z,28.73
2023-02-12T11:33:24.443Z,29.47
2023-02-12T11:36:26.278Z,32.73
2023-02-12T11:39:24.685Z,29.77
2023-02-12T11:42:18.625Z,29.13
2023-02-12T11:45:04.853Z,25.77
2023-02-12T11:47:51.292Z,28.85
2023-02-12T11:50:37.403Z,30.90
2023-02-12T11:53:36.932Z,31.90
2023-02-12T11:56:22.621Z,32.85
2023-02-12T11:59:22.126Z,32.42
2023-02-12T12:02:36.092Z,31.30
2023-02-12T12:05:25.322Z,32.65
2023-02-12T12:08:18.070Z,34.42
2023-02-12T12:11:26.716Z,34.88
2023-02-12T12:14:31.475Z,35.30
2023-02-12T12:17:36.950Z,32.30
2023-02-12T12:20:27.311Z,33.15
2023-02-12T12:23:20.695Z,30.63
2023-02-12T12:26:13.236Z,31.33
2023-02-12T12:29:20.134Z,31.42
2023-02-12T12:32:06.546Z,32.38
2023-02-12T12:34:52.489Z,29.98
2023-02-12T12:37:50.716Z,31.02
2023-02-12T12:41:04.777Z,32.58
2023-02-12T12:44:14.882Z,31.65
2023-02-12T12:47:26.875Z,31.98
2023-02-12T12:50:54.420Z,28.73
2023-02-12T12:54:10.091Z,28.05
2023-02-12T12:57:04.294Z,31.42
2023-02-12T13:00:12.818Z,29.02
2023-02-12T13:03:28.886Z,27.33
2023-02-12T13:06:33.310Z,28.60
2023-02-12T13:09:46.176Z,27.17
2023-02-12T13:12:54.267Z,29.10
2023-02-12T13:15:58.596Z,29.13
2023-02-12T13:19:01.136Z,30.60
2023-02-12T13:21:56.396Z,28.58
2023-02-12T13:25:18.565Z,28.08
2023-02-12T13:28:05.982Z,27.50
2023-02-12T13:30:54.018Z,27.48
2023-02-12T13:33:47.455Z,27.27
2023-02-12T13:36:36.092Z,28.20
2023-02-12T13:39:38.877Z,27.73
2023-02-12T13:42:50.851Z,25.80
2023-02-12T13:46:04.194Z,27.00
2023-02-12T13:49:19.757Z,27.70
2023-02-12T13:55:14.892Z,25.90
2023-02-12T13:58:42.792Z,24.95
2023-02-12T14:01:47.030Z,23.98
2023-02-12T14:04:37.735Z,26.67
2023-02-12T14:07:24.553Z,27.90
2023-02-12T14:10:20.653Z,27.08
2023-02-12T14:13:17.771Z,26.10
2023-02-12T14:16:19.851Z,25.60
2023-02-12T14:19:37.865Z,24.60
2023-02-12T14:22:26.543Z,28.20
2023-02-12T14:25:15.201Z,25.67
2023-02-12T14:28:18.232Z,24.92
2023-02-12T14:31:19.930Z,24.92
2023-02-12T14:34:05.461Z,23.13
2023-02-12T14:37:18.310Z,25.77
2023-02-12T14:40:34.885Z,23.33
2023-02-12T14:43:31.963Z,20.50
2023-02-12T14:46:23.566Z,23.75
2023-02-12T14:49:24.755Z,22.92
2023-02-12T14:52:12.750Z,23.58
2023-02-12T14:55:04.094Z,26.20
2023-02-12T14:57:50.046Z,24.80
2023-02-12T15:00:41.557Z,24.95
2023-02-12T15:03:50.981Z,23.05
2023-02-12T15:06:42.704Z,22.13
2023-02-12T15:09:39.099Z,23.00
2023-02-12T15:12:42.884Z,24.60
2023-02-12T15:15:34.093Z,24.58
2023-02-12T15:18:34.143Z,21.38
2023-02-12T15:21:29.354Z,27.08
2023-02-12T15:24:23.399Z,21.27
2023-02-12T15:27:13.064Z,23.45
2023-02-12T15:29:58.782Z,24.85
2023-02-12T15:32:47.761Z,21.73
2023-02-12T15:35:36.821Z,25.95
2023-02-12T15:38:29.418Z,23.92
2023-02-12T15:41:48.219Z,24.65
2023-02-12T15:44:35.375Z,23.02
2023-02-12T15:47:24.787Z,23.58
2023-02-12T15:50:14.929Z,22.73
2023-02-12T15:53:01.355Z,21.77
2023-02-12T15:55:48.656Z,23.90
2023-02-12T15:58:43.174Z,23.45
2023-02-12T16:01:31.705Z,24.63
2023-02-12T16:04:17.094Z,26.02
2023-02-12T16:07:03.099Z,24.60
2023-02-12T16:09:52.224Z,23.70
2023-02-12T16:12:39.932Z,22.10
2023-02-12T16:15:31.555Z,25.33
2023-02-12T16:18:25.541Z,24.50
2023-02-12T16:21:18.788Z,22.48
2023-02-12T16:24:18.449Z,24.48
2023-02-12T16:27:23.328Z,23.25
2023-02-12T16:30:26.960Z,25.00
2023-02-12T16:33:35.752Z,22.38
2023-02-12T16:36:22.669Z,23.63
2023-02-12T16:39:38.041Z,25.35
2023-02-12T16:42:29.464Z,24.17
2023-02-12T16:45:26.878Z,24.40
2023-02-12T16:48:23.524Z,27.55
2023-02-12T16:51:25.837Z,25.98
2023-02-12T16:54:34.767Z,26.33
2023-02-12T16:57:20.069Z,25.92
2023-02-12T17:00:10.551Z,26.10
2023-02-12T17:02:56.914Z,24.55
2023-02-12T17:05:43.745Z,25.83
2023-02-12T17:08:29.230Z,25.83
2023-02-12T17:11:17.722Z,26.52
2023-02-12T17:14:03.115Z,23.27
2023-02-12T17:16:49.329Z,28.25
2023-02-12T17:19:34.834Z,26.43
2023-02-12T17:22:23.319Z,25.53
2023-02-12T17:25:12.206Z,24.23
2023-02-12T17:27:58.061Z,28.03
2023-02-12T17:30:43.820Z,24.57
2023-02-12T17:33:29.445Z,26.38
2023-02-12T17:36:14.860Z,22.83
2023-02-12T17:39:01.176Z,25.90
2023-02-12T17:41:46.891Z,25.83
2023-02-12T17:44:32.646Z,27.93
2023-02-12T17:47:18.133Z,28.37
2023-02-12T17:50:03.287Z,25.60
2023-02-12T17:52:48.794Z,26.80
2023-02-12T17:55:37.776Z,24.27
2023-02-12T17:58:23.402Z,26.53
2023-02-12T18:01:11.390Z,28.17
2023-02-12T18:04:00.342Z,31.40
2023-02-12T18:06:46.314Z,26.83
2023-02-12T18:09:33.010Z,29.70
2023-02-12T18:12:18.809Z,33.10
2023-02-12T18:15:05.622Z,33.83
2023-02-12T18:17:50.903Z,26.53
2023-02-12T18:20:36.662Z,31.07
2023-02-12T18:23:21.929Z,28.23
2023-02-12T18:26:15.939Z,28.60
2023-02-12T18:29:01.388Z,27.33
2023-02-12T18:31:47.067Z,30.67
2023-02-12T18:34:32.942Z,30.87
2023-02-12T18:37:18.575Z,28.13
2023-02-12T18:40:04.048Z,31.60
2023-02-12T18:42:49.487Z,27.37
2023-02-12T18:45:34.805Z,32.53
2023-02-12T18:48:20.392Z,34.73
2023-02-12T18:51:07.996Z,34.90
2023-02-12T18:53:57.577Z,32.53
2023-02-12T18:56:44.658Z,32.03
2023-02-12T18:59:29.887Z,32.07
2023-02-12T19:02:15.876Z,33.50
2023-02-12T19:05:01.446Z,30.57
2023-02-12T19:07:46.812Z,27.83
2023-02-12T19:10:32.657Z,29.90
2023-02-12T19:13:18.345Z,29.37
2023-02-12T19:16:12.902Z,31.23
2023-02-12T19:19:00.018Z,29.33
2023-02-12T19:21:46.148Z,29.50
2023-02-12T19:24:45.622Z,32.37
2023-02-12T19:27:31.670Z,27.57
2023-02-12T19:30:17.358Z,32.37
2023-02-12T19:33:02.943Z,33.07
2023-02-12T19:35:51.490Z,33.50
2023-02-12T19:38:37.532Z,31.40
2023-02-12T19:41:24.771Z,30.97
2023-02-12T19:44:12.901Z,29.07
2023-02-12T19:46:59.496Z,31.10
2023-02-12T19:49:45.162Z,30.87
2023-02-12T19:52:30.831Z,32.20
2023-02-12T19:55:16.189Z,32.67
2023-02-12T19:58:01.789Z,32.67
2023-02-12T20:00:47.746Z,32.07
2023-02-12T20:03:33.117Z,27.77
2023-02-12T20:06:24.807Z,30.10
2023-02-12T20:09:12.136Z,30.60
2023-02-12T20:11:57.810Z,37.73
2023-02-12T20:14:43.173Z,34.33
2023-02-12T20:17:28.708Z,36.53
2023-02-12T20:20:14.289Z,34.03
2023-02-12T20:23:00.460Z,33.13
2023-02-12T20:25:46.509Z,37.07
2023-02-12T20:28:32.281Z,40.20
2023-02-12T20:31:21.712Z,40.10
2023-02-12T20:34:11.066Z,34.77
2023-02-12T20:36:56.384Z,33.70
2023-02-12T20:39:42.247Z,34.97
2023-02-12T20:42:27.598Z,32.07
2023-02-12T20:45:12.899Z,32.97
2023-02-12T20:47:58.305Z,31.53
2023-02-12T20:50:43.794Z,36.77
2023-02-12T20:53:30.400Z,35.50
2023-02-12T20:56:21.460Z,36.87
2023-02-12T20:59:07.625Z,38.23
2023-02-12T21:01:53.101Z,42.30
2023-02-12T21:04:38.323Z,41.50
2023-02-12T21:07:23.945Z,37.97
2023-02-12T21:10:09.938Z,38.00
2023-02-12T21:12:55.238Z,36.57
2023-02-12T21:15:40.887Z,39.67
2023-02-12T21:18:28.110Z,36.13
2023-02-12T21:21:19.261Z,35.10
2023-02-12T21:24:08.311Z,36.50
2023-02-12T21:26:54.881Z,34.63
2023-02-12T21:29:40.488Z,36.50
2023-02-12T21:32:25.694Z,36.23
2023-02-12T21:35:11.225Z,33.90
2023-02-12T21:37:56.419Z,36.47
2023-02-12T21:40:42.182Z,35.23
2023-02-12T21:43:27.730Z,33.23
2023-02-12T21:46:17.493Z,38.33
2023-02-12T21:49:04.257Z,36.33
2023-02-12T21:51:50.568Z,38.90
2023-02-12T21:54:35.891Z,36.07
2023-02-12T21:57:21.910Z,30.80
2023-02-12T22:00:07.992Z,32.93
2023-02-12T22:02:55.137Z,30.83
2023-02-12T22:05:40.487Z,31.30
2023-02-12T22:08:25.883Z,33.30
2023-02-12T22:11:13.220Z,29.13
2023-02-12T22:13:58.861Z,34.17
2023-02-12T22:16:45.016Z,29.10
2023-02-12T22:19:30.606Z,30.97
2023-02-12T22:22:16.231Z,36.90
2023-02-12T22:25:02.004Z,34.37
2023-02-12T22:27:47.360Z,33.83
2023-02-12T22:30:32.810Z,32.80
2023-02-12T22:33:18.067Z,31.73
2023-02-12T22:36:05.854Z,35.13
2023-02-12T22:38:52.618Z,31.13
2023-02-12T22:41:38.256Z,31.70
2023-02-12T22:44:23.761Z,30.73
2023-02-12T22:47:09.116Z,32.27
2023-02-12T22:49:54.736Z,32.47
2023-02-12T22:52:40.283Z,30.97
2023-02-12T22:55:25.728Z,27.73
2023-02-12T22:58:11.931Z,31.07
2023-02-12T23:00:57.556Z,33.30
2023-02-12T23:03:44.002Z,33.57
2023-02-12T23:06:31.456Z,33.93
2023-02-12T23:09:19.249Z,27.83
2023-02-12T23:12:07.549Z,32.40
2023-02-12T23:14:52.877Z,29.50
2023-02-12T23:17:38.639Z,27.90
2023-02-12T23:20:24.042Z,27.17
2023-02-12T23:23:09.823Z,26.33
2023-02-12T23:25:55.620Z,28.63
2023-02-12T23:28:41.521Z,35.87
2023-02-12T23:31:27.312Z,31.77
2023-02-12T23:34:13.217Z,31.37
2023-02-12T23:36:58.884Z,33.87
2023-02-12T23:39:44.212Z,29.70
2023-02-12T23:42:29.980Z,30.63
2023-02-12T23:45:15.629Z,33.27
2023-02-12T23:48:01.384Z,31.53
2023-02-12T23:50:49.637Z,30.83
2023-02-12T23:53:35.353Z,30.30
2023-02-12T23:56:20.792Z,31.50
2023-02-12T23:59:06.377Z,29.13
